Terminal Aerodrome Forecast
Issued by NWS

Home | Current Version | Previous Version | Text Only | Print | Product List | Glossary On
Versions: 1 2 3 4 5 6 7 8 9 10 11 12 13 14 15 16 17 18 19 20 21 22 23 24 25 26 27 28 29 30
000
FTUS41 KCTP 281720
TAFAOO
TAF
KAOO 281720Z 2818/2918 15010G19KT P6SM BKN060
     FM290200 10008G15KT 5SM -SHRA BR OVC030
     FM290600 09008KT P6SM -RA OVC007
     FM291100 10010KT 4SM -RA BR OVC007=

USA.gov is the U.S. government's official web portal to all federal, state and local government web resources and services.